createdAt,value
2018-03-17T00:01:27.430Z,1.70
2018-03-17T00:03:57.050Z,1.50
2018-03-17T00:06:26.807Z,1.50
2018-03-17T00:08:55.640Z,1.50
2018-03-17T00:11:25.246Z,1.60
2018-03-17T00:13:54.888Z,1.60
2018-03-17T00:16:23.772Z,1.60
2018-03-17T00:18:52.613Z,1.60
2018-03-17T00:21:22.234Z,1.70
2018-03-17T00:23:51.854Z,1.60
2018-03-17T00:26:21.464Z,1.50
2018-03-17T00:28:50.345Z,1.40
2018-03-17T00:31:19.954Z,1.40
2018-03-17T00:33:48.813Z,1.40
2018-03-17T00:36:17.646Z,1.40
2018-03-17T00:38:46.505Z,1.40
2018-03-17T00:41:15.340Z,1.40
2018-03-17T00:43:44.182Z,1.40
2018-03-17T00:46:13.031Z,1.50
2018-03-17T00:48:41.858Z,1.60
2018-03-17T00:51:10.698Z,1.50
2018-03-17T00:53:39.547Z,1.40
2018-03-17T00:56:08.402Z,1.40
2018-03-17T00:58:38.002Z,1.30
2018-03-17T01:01:07.624Z,1.30
2018-03-17T01:03:37.210Z,1.30
2018-03-17T01:06:06.067Z,1.30
2018-03-17T01:08:34.903Z,1.40
2018-03-17T01:11:04.511Z,1.30
2018-03-17T01:13:34.101Z,1.30
2018-03-17T01:16:02.958Z,1.20
2018-03-17T01:18:31.782Z,1.40
2018-03-17T01:21:01.398Z,1.30
2018-03-17T01:23:30.215Z,1.30
2018-03-17T01:25:59.073Z,1.20
2018-03-17T01:28:28.686Z,1.20
2018-03-17T01:30:58.310Z,1.10
2018-03-17T01:33:27.150Z,1.00
2018-03-17T01:35:56.779Z,1.20
2018-03-17T01:38:25.610Z,1.20
2018-03-17T01:40:54.457Z,1.20
2018-03-17T01:43:24.061Z,1.30
2018-03-17T01:45:52.882Z,1.30
2018-03-17T01:48:21.727Z,1.20
2018-03-17T01:50:51.334Z,1.20
2018-03-17T01:53:20.210Z,1.10
2018-03-17T01:55:49.033Z,1.20
2018-03-17T01:58:18.631Z,1.20
2018-03-17T02:00:48.226Z,1.20
2018-03-17T02:03:17.883Z,1.00
2018-03-17T02:05:46.726Z,1.00
2018-03-17T02:08:16.338Z,0.90
2018-03-17T02:10:45.930Z,1.00
2018-03-17T02:13:15.542Z,0.90
2018-03-17T02:15:45.145Z,0.90
2018-03-17T02:18:14.761Z,0.90
2018-03-17T02:20:44.391Z,0.90
2018-03-17T02:23:13.247Z,0.80
2018-03-17T02:25:42.845Z,0.90
2018-03-17T02:28:11.696Z,0.80
2018-03-17T02:30:40.527Z,0.90
2018-03-17T02:33:09.367Z,0.90
2018-03-17T02:35:38.236Z,0.90
2018-03-17T02:38:07.078Z,1.00
2018-03-17T02:40:35.919Z,1.00
2018-03-17T02:43:04.760Z,1.00
2018-03-17T02:45:34.515Z,0.90
2018-03-17T02:48:03.367Z,0.90
2018-03-17T02:50:32.963Z,0.70
2018-03-17T02:53:01.798Z,0.60
2018-03-17T02:55:31.403Z,0.90
2018-03-17T02:58:00.251Z,0.80
2018-03-17T03:00:29.094Z,0.90
2018-03-17T03:02:57.929Z,0.80
2018-03-17T03:05:26.762Z,0.80
2018-03-17T03:07:55.597Z,0.80
2018-03-17T03:10:24.413Z,0.60
2018-03-17T03:12:53.999Z,0.60
2018-03-17T03:15:22.842Z,0.50
2018-03-17T03:17:51.676Z,0.60
2018-03-17T03:20:20.518Z,0.60
2018-03-17T03:22:49.408Z,0.60
2018-03-17T03:25:18.985Z,0.50
2018-03-17T03:27:48.578Z,0.60
2018-03-17T03:30:17.435Z,0.60
2018-03-17T03:32:46.280Z,0.60
2018-03-17T03:35:15.884Z,0.70
2018-03-17T03:37:45.491Z,0.70
2018-03-17T03:40:15.100Z,0.70
2018-03-17T03:42:44.713Z,0.60
2018-03-17T03:45:14.306Z,0.50
2018-03-17T03:47:43.918Z,0.50
2018-03-17T03:50:13.509Z,0.40
2018-03-17T03:52:42.354Z,0.40
2018-03-17T03:55:11.187Z,0.50
2018-03-17T03:57:40.746Z,0.40
2018-03-17T04:00:09.575Z,0.50
2018-03-17T04:02:39.385Z,0.40
2018-03-17T04:05:08.217Z,0.30
2018-03-17T04:07:37.037Z,0.40
2018-03-17T04:10:05.912Z,0.40
2018-03-17T04:12:34.751Z,0.40
2018-03-17T04:15:04.862Z,0.50
2018-03-17T04:17:33.749Z,0.40
2018-03-17T04:20:02.534Z,0.50
2018-03-17T04:22:31.389Z,0.40
2018-03-17T04:25:00.211Z,0.40
2018-03-17T04:27:29.050Z,0.40
2018-03-17T04:29:57.869Z,0.20
2018-03-17T04:32:26.712Z,0.20
2018-03-17T04:34:58.177Z,0.20
2018-03-17T04:37:26.998Z,0.10
2018-03-17T04:39:55.825Z,0.30
2018-03-17T04:42:24.639Z,0.30
2018-03-17T04:44:53.475Z,0.20
2018-03-17T04:47:23.064Z,0.30
2018-03-17T04:49:51.901Z,0.20
2018-03-17T04:52:20.752Z,0.30
2018-03-17T04:54:49.590Z,0.20
2018-03-17T04:57:18.423Z,0.20
2018-03-17T04:59:47.320Z,0.10
2018-03-17T05:02:16.138Z,0.10
2018-03-17T05:04:44.991Z,0.20
2018-03-17T05:07:13.827Z,0.10
2018-03-17T05:09:42.682Z,0.00
2018-03-17T05:12:12.282Z,0.10
2018-03-17T05:14:41.109Z,0.00
2018-03-17T05:17:09.955Z,0.10
2018-03-17T05:19:38.775Z,0.10
2018-03-17T05:22:08.364Z,0.10
2018-03-17T05:24:37.981Z,0.00
2018-03-17T05:27:07.571Z,0.10
2018-03-17T05:29:36.413Z,0.00
2018-03-17T05:32:05.254Z,0.00
2018-03-17T05:34:34.874Z,0.00
2018-03-17T05:37:04.474Z,0.00
2018-03-17T05:39:34.068Z,-0.10
2018-03-17T05:42:03.685Z,-0.30
2018-03-17T05:44:33.294Z,-0.30
2018-03-17T05:47:02.151Z,-0.30
2018-03-17T05:49:30.978Z,-0.30
2018-03-17T05:52:00.603Z,-0.30
2018-03-17T05:54:29.424Z,-0.40
2018-03-17T05:56:58.286Z,-0.40
2018-03-17T05:59:27.095Z,-0.40
2018-03-17T06:01:55.933Z,-0.30
2018-03-17T06:04:25.582Z,-0.40
2018-03-17T06:06:54.420Z,-0.40
2018-03-17T06:09:23.255Z,-0.40
2018-03-17T06:11:52.093Z,-0.40
2018-03-17T06:14:20.922Z,-0.40
2018-03-17T06:16:49.789Z,-0.50
2018-03-17T06:19:21.454Z,-0.30
2018-03-17T06:21:51.050Z,-0.40
2018-03-17T06:24:20.654Z,-0.50
2018-03-17T06:26:50.290Z,-0.50
2018-03-17T06:29:19.132Z,-0.60
2018-03-17T06:31:48.133Z,-0.40
2018-03-17T06:34:17.750Z,-0.40
2018-03-17T06:36:47.370Z,-0.50
2018-03-17T06:39:16.978Z,-0.60
2018-03-17T06:41:46.586Z,-0.60
2018-03-17T06:44:16.185Z,-0.50
2018-03-17T06:46:45.815Z,-0.50
2018-03-17T06:49:14.658Z,-0.60
2018-03-17T06:51:43.502Z,-0.40
2018-03-17T06:54:12.341Z,-0.30
2018-03-17T06:56:42.692Z,-0.50
2018-03-17T06:59:12.303Z,-0.40
2018-03-17T07:01:41.134Z,-0.50
2018-03-17T07:04:09.979Z,-0.40
2018-03-17T07:06:40.147Z,-0.60
2018-03-17T07:09:09.016Z,-0.60
2018-03-17T07:11:37.847Z,-0.60
2018-03-17T07:14:06.688Z,-0.60
2018-03-17T07:16:35.543Z,-0.60
2018-03-17T07:19:05.629Z,-0.50
2018-03-17T07:21:34.786Z,-0.60
2018-03-17T07:24:03.636Z,-0.60
2018-03-17T07:26:32.471Z,-0.60
2018-03-17T07:29:01.308Z,-0.70
2018-03-17T07:31:30.160Z,-0.60
2018-03-17T07:33:58.990Z,-0.60
2018-03-17T07:36:27.830Z,-0.70
2018-03-17T07:38:56.674Z,-0.70
2018-03-17T07:41:25.544Z,-0.70
2018-03-17T07:43:54.407Z,-0.60
2018-03-17T07:46:23.266Z,-0.60
2018-03-17T07:48:52.103Z,-0.50
2018-03-17T07:51:20.986Z,-0.50
2018-03-17T07:53:50.555Z,-0.50
2018-03-17T07:56:20.158Z,-0.60
2018-03-17T07:58:49.796Z,-0.60
2018-03-17T08:01:18.721Z,-0.70
2018-03-17T08:03:47.577Z,-0.60
2018-03-17T08:06:16.443Z,-0.60
2018-03-17T08:08:46.066Z,-0.60
2018-03-17T08:11:14.963Z,-0.70
2018-03-17T08:13:44.234Z,-0.70
2018-03-17T08:16:13.835Z,-0.60
2018-03-17T08:18:43.439Z,-0.50
2018-03-17T08:21:12.282Z,-0.60
2018-03-17T08:23:41.103Z,-0.50
2018-03-17T08:26:09.951Z,-0.50
2018-03-17T08:28:38.798Z,-0.50
2018-03-17T08:31:08.411Z,-0.40
2018-03-17T08:33:37.248Z,-0.40
2018-03-17T08:36:06.077Z,-0.40
2018-03-17T08:38:34.958Z,-0.40
2018-03-17T08:41:03.802Z,-0.40
2018-03-17T08:43:33.405Z,-0.50
2018-03-17T08:46:02.242Z,-0.60
2018-03-17T08:48:31.949Z,-0.60
2018-03-17T08:51:00.814Z,-0.60
2018-03-17T08:53:30.424Z,-0.60
2018-03-17T08:56:00.041Z,-0.60
2018-03-17T08:58:28.867Z,-0.60
2018-03-17T09:00:57.702Z,-0.80
2018-03-17T09:03:27.295Z,-0.70
2018-03-17T09:05:57.346Z,-0.70
2018-03-17T09:08:26.218Z,-0.80
2018-03-17T09:10:55.821Z,-0.70
2018-03-17T09:13:25.450Z,-0.70
2018-03-17T09:15:54.300Z,-0.70
2018-03-17T09:18:23.134Z,-0.70
2018-03-17T09:20:52.081Z,-0.60
2018-03-17T09:23:20.890Z,-0.50
2018-03-17T09:25:50.503Z,-0.60
2018-03-17T09:28:20.107Z,-0.40
2018-03-17T09:30:49.762Z,-0.50
2018-03-17T09:33:18.601Z,-0.40
2018-03-17T09:35:48.243Z,-0.50
2018-03-17T09:38:19.068Z,-0.50
2018-03-17T09:40:47.945Z,-0.50
2018-03-17T09:43:16.820Z,-0.40
2018-03-17T09:45:45.664Z,-0.30
2018-03-17T09:48:15.294Z,-0.40
2018-03-17T09:50:44.114Z,-0.50
2018-03-17T09:53:12.984Z,-0.50
2018-03-17T09:55:42.593Z,-0.50
2018-03-17T09:58:11.439Z,-0.50
2018-03-17T10:00:40.270Z,-0.50
2018-03-17T10:03:09.113Z,-0.60
2018-03-17T10:05:37.949Z,-0.70
2018-03-17T10:08:06.795Z,-0.70
2018-03-17T10:10:35.639Z,-0.60
2018-03-17T10:13:05.239Z,-0.70
2018-03-17T10:15:34.136Z,-0.70
2018-03-17T10:18:02.962Z,-0.70
2018-03-17T10:20:31.882Z,-0.60
2018-03-17T10:23:01.515Z,-0.50
2018-03-17T10:25:30.354Z,-0.60
2018-03-17T10:27:59.204Z,-0.60
2018-03-17T10:30:28.809Z,-0.50
2018-03-17T10:32:57.637Z,-0.60
2018-03-17T10:35:27.991Z,-0.70
2018-03-17T10:37:56.911Z,-0.70
2018-03-17T10:40:25.771Z,-0.60
2018-03-17T10:42:54.612Z,-0.50
2018-03-17T10:45:24.252Z,-0.60
2018-03-17T10:47:53.130Z,-0.60
2018-03-17T10:50:21.932Z,-0.60
2018-03-17T10:52:50.752Z,-0.50
2018-03-17T10:55:19.607Z,-0.30
2018-03-17T10:57:49.198Z,-0.10
2018-03-17T11:00:24.405Z,0.00
2018-03-17T11:02:53.260Z,-0.10
2018-03-17T11:05:22.098Z,-0.10
2018-03-17T11:07:51.748Z,-0.20
2018-03-17T11:10:20.610Z,-0.30
2018-03-17T11:12:50.222Z,-0.30
2018-03-17T11:15:19.068Z,-0.30
2018-03-17T11:17:47.923Z,-0.30
2018-03-17T11:20:16.767Z,-0.20
2018-03-17T11:22:45.634Z,-0.30
2018-03-17T11:25:14.475Z,-0.40
2018-03-17T11:27:43.315Z,-0.40
2018-03-17T11:30:12.744Z,-0.30
2018-03-17T11:32:42.693Z,-0.40
2018-03-17T11:35:11.545Z,-0.50
2018-03-17T11:37:41.139Z,-0.50
2018-03-17T11:40:10.758Z,-0.50
2018-03-17T11:42:39.605Z,-0.60
2018-03-17T11:45:08.450Z,-0.50
2018-03-17T11:47:37.297Z,-0.50
2018-03-17T11:50:06.910Z,-0.50
2018-03-17T11:52:36.536Z,-0.60
2018-03-17T11:55:06.149Z,-0.60
2018-03-17T11:57:35.023Z,-0.70
2018-03-17T12:00:04.859Z,-0.80
2018-03-17T12:02:33.709Z,-0.80
2018-03-17T12:05:03.326Z,-0.90
2018-03-17T12:07:32.957Z,-0.80
2018-03-17T12:10:02.616Z,-0.70
2018-03-17T12:12:31.423Z,-0.80
2018-03-17T12:15:01.050Z,-0.50
2018-03-17T12:17:29.895Z,-0.50
2018-03-17T12:19:59.243Z,-0.60
2018-03-17T12:22:28.147Z,-0.70
2018-03-17T12:24:57.448Z,-0.80
2018-03-17T12:27:26.282Z,-0.90
2018-03-17T12:29:55.138Z,-0.90
2018-03-17T12:32:23.976Z,-0.60
2018-03-17T12:34:53.582Z,-0.60
2018-03-17T12:37:23.336Z,-0.60
2018-03-17T12:39:52.182Z,-0.60
2018-03-17T12:42:21.008Z,-0.60
2018-03-17T12:44:49.904Z,-0.60
2018-03-17T12:47:19.502Z,-0.50
2018-03-17T12:49:48.361Z,-0.60
2018-03-17T12:52:18.018Z,-0.40
2018-03-17T12:54:46.851Z,-0.40
2018-03-17T12:57:16.526Z,-0.40
2018-03-17T12:59:45.391Z,-0.50
2018-03-17T13:02:14.259Z,-0.50
2018-03-17T13:04:43.859Z,-0.30
2018-03-17T13:07:13.468Z,-0.50
2018-03-17T13:09:43.082Z,-0.50
2018-03-17T13:12:13.335Z,-0.60
2018-03-17T13:14:42.193Z,-0.60
2018-03-17T13:17:11.825Z,-0.70
2018-03-17T13:19:40.666Z,-0.70
2018-03-17T13:22:10.738Z,-0.60
2018-03-17T13:24:40.113Z,-0.70
2018-03-17T13:27:21.772Z,-0.40
2018-03-17T13:29:50.561Z,-0.50
2018-03-17T13:35:44.124Z,-0.40
2018-03-17T13:38:13.586Z,-0.50
2018-03-17T13:40:44.891Z,-0.60
2018-03-17T13:43:14.654Z,-0.60
2018-03-17T13:45:43.522Z,-0.60
2018-03-17T13:48:12.617Z,-0.60
2018-03-17T13:50:41.517Z,-0.60
2018-03-17T13:53:10.445Z,-0.50
2018-03-17T13:55:39.711Z,-0.60
2018-03-17T13:58:10.483Z,-0.60
2018-03-17T14:13:37.792Z,-0.60
2018-03-17T14:16:07.189Z,-0.80
2018-03-17T14:18:38.074Z,-0.90
2018-03-17T14:21:07.543Z,-0.70
2018-03-17T14:23:37.107Z,-0.60
2018-03-17T14:26:06.392Z,-0.60
2018-03-17T14:28:37.280Z,-0.60
2018-03-17T14:31:06.669Z,-0.70
2018-03-17T14:33:36.521Z,-0.70
2018-03-17T14:36:07.465Z,-0.90
2018-03-17T14:38:36.917Z,-0.80
2018-03-17T14:41:06.405Z,-0.80
2018-03-17T14:43:36.022Z,-0.80
2018-03-17T14:46:05.336Z,-0.90
2018-03-17T14:48:35.894Z,-1.00
2018-03-17T14:51:05.460Z,-1.00
2018-03-17T14:53:34.968Z,-0.90
2018-03-17T14:56:06.248Z,-0.70
2018-03-17T14:58:36.382Z,-0.60
2018-03-17T15:01:06.067Z,-0.80
2018-03-17T15:03:36.192Z,-0.90
2018-03-17T15:06:06.597Z,-1.00
2018-03-17T15:08:36.165Z,-0.90
2018-03-17T15:11:11.111Z,-1.00
2018-03-17T15:13:41.042Z,-0.90
2018-03-17T15:16:10.285Z,-1.00
2018-03-17T15:18:39.385Z,-0.90
2018-03-17T15:21:08.581Z,-0.80
2018-03-17T15:23:38.019Z,-0.90
2018-03-17T15:26:07.308Z,-1.10
2018-03-17T15:28:36.599Z,-1.10
2018-03-17T15:31:05.995Z,-1.00
2018-03-17T15:33:35.792Z,-1.00
2018-03-17T15:36:10.800Z,-1.10
2018-03-17T15:38:40.726Z,-1.00
2018-03-17T15:41:09.823Z,-0.90
2018-03-17T15:43:38.995Z,-0.70
2018-03-17T15:46:08.206Z,-0.70
2018-03-17T15:48:38.009Z,-0.90
2018-03-17T15:51:07.843Z,-1.00
2018-03-17T16:06:32.159Z,-0.90
2018-03-17T16:09:01.149Z,-1.10
2018-03-17T16:11:31.143Z,-1.10
2018-03-17T16:14:00.431Z,-1.10
2018-03-17T16:16:30.708Z,-1.10
2018-03-17T16:18:59.649Z,-1.20
2018-03-17T16:21:30.030Z,-1.10
2018-03-17T16:23:59.187Z,-1.10
2018-03-17T16:26:28.644Z,-1.00
2018-03-17T16:28:58.029Z,-0.90
2018-03-17T16:31:28.340Z,-0.90
2018-03-17T16:33:58.634Z,-0.90
2018-03-17T16:36:28.295Z,-1.00
2018-03-17T16:38:58.825Z,-1.00
2018-03-17T16:41:28.328Z,-1.00
2018-03-17T16:43:59.803Z,-1.10
2018-03-17T16:46:29.007Z,-1.10
2018-03-17T16:48:57.895Z,-1.10
2018-03-17T16:51:28.654Z,-1.10
2018-03-17T16:53:57.767Z,-1.10
2018-03-17T16:56:27.580Z,-1.10
2018-03-17T16:58:57.855Z,-1.10
2018-03-17T17:01:27.356Z,-1.20
2018-03-17T17:04:00.034Z,-1.20
2018-03-17T17:06:29.904Z,-1.20
2018-03-17T17:08:59.571Z,-1.30
2018-03-17T17:11:28.987Z,-1.30
2018-03-17T17:13:58.652Z,-1.20
2018-03-17T17:16:28.116Z,-1.20
2018-03-17T17:18:57.263Z,-1.20
2018-03-17T17:21:26.202Z,-1.10
2018-03-17T17:23:55.966Z,-1.10
2018-03-17T17:26:24.953Z,-1.10
2018-03-17T17:28:53.924Z,-1.10
2018-03-17T17:31:22.845Z,-1.20
2018-03-17T17:33:51.769Z,-1.10
2018-03-17T17:36:20.685Z,-1.10
2018-03-17T17:38:49.613Z,-1.20
2018-03-17T17:41:18.500Z,-1.10
2018-03-17T17:43:47.442Z,-1.10
2018-03-17T17:46:16.394Z,-1.10
2018-03-17T17:48:45.363Z,-1.10
2018-03-17T17:51:14.273Z,-1.10
2018-03-17T17:53:43.220Z,-1.10
2018-03-17T17:56:12.129Z,-1.10
2018-03-17T17:58:41.091Z,-1.00
2018-03-17T18:01:10.000Z,-1.20
2018-03-17T18:03:38.878Z,-1.20
2018-03-17T18:06:07.733Z,-1.10
2018-03-17T18:08:36.620Z,-1.10
2018-03-17T18:11:05.584Z,-1.00
2018-03-17T18:13:34.497Z,-0.90
2018-03-17T18:16:03.375Z,-0.90
2018-03-17T18:18:32.292Z,-1.00
2018-03-17T18:21:01.188Z,-1.00
2018-03-17T18:23:30.106Z,-1.10
2018-03-17T18:25:58.958Z,-1.20
2018-03-17T18:28:27.823Z,-1.20
2018-03-17T18:30:56.692Z,-1.20
2018-03-17T18:33:26.339Z,-1.10
2018-03-17T18:35:55.216Z,-1.10
2018-03-17T18:38:24.156Z,-1.00
2018-03-17T18:40:53.022Z,-1.00
2018-03-17T18:43:21.942Z,-1.00
2018-03-17T18:45:50.833Z,-1.00
2018-03-17T18:48:19.969Z,-1.00
2018-03-17T18:50:48.889Z,-1.00
2018-03-17T18:53:17.766Z,-0.90
2018-03-17T18:55:46.622Z,-1.00
2018-03-17T18:58:15.501Z,-1.10
2018-03-17T19:00:44.344Z,-1.10
2018-03-17T19:03:13.239Z,-0.90
2018-03-17T19:05:42.115Z,-1.00
2018-03-17T19:08:11.040Z,-1.00
2018-03-17T19:10:40.701Z,-0.90
2018-03-17T19:13:09.565Z,-1.00
2018-03-17T19:15:38.460Z,-1.00
2018-03-17T19:18:07.348Z,-0.90
2018-03-17T19:20:36.284Z,-1.00
2018-03-17T19:23:05.122Z,-1.00
2018-03-17T19:25:34.015Z,-1.00
2018-03-17T19:28:02.883Z,-0.90
2018-03-17T19:30:31.744Z,-0.90
2018-03-17T19:33:00.625Z,-1.00
2018-03-17T19:35:29.533Z,-1.10
2018-03-17T19:37:58.392Z,-1.10
2018-03-17T19:40:27.234Z,-1.00
2018-03-17T19:42:56.201Z,-1.00
2018-03-17T19:45:25.060Z,-0.90
2018-03-17T19:47:53.929Z,-0.90
2018-03-17T19:50:22.810Z,-0.90
2018-03-17T19:52:56.886Z,-0.90
2018-03-17T19:55:26.544Z,-0.90
2018-03-17T19:57:55.456Z,-0.90
2018-03-17T20:00:25.076Z,-0.80
2018-03-17T20:02:54.752Z,-0.80
2018-03-17T20:05:23.901Z,-0.80
2018-03-17T20:07:52.814Z,-0.90
2018-03-17T20:10:21.680Z,-0.90
2018-03-17T20:12:50.552Z,-0.90
2018-03-17T20:15:20.176Z,-0.80
2018-03-17T20:17:49.086Z,-0.90
2018-03-17T20:20:17.968Z,-0.80
2018-03-17T20:22:46.852Z,-0.80
2018-03-17T20:25:15.793Z,-0.80
2018-03-17T20:27:44.625Z,-0.90
2018-03-17T20:30:13.497Z,-0.90
2018-03-17T20:32:42.403Z,-0.80
2018-03-17T20:35:11.318Z,-0.80
2018-03-17T20:37:40.167Z,-0.80
2018-03-17T20:40:09.874Z,-0.70
2018-03-17T20:42:39.488Z,-0.70
2018-03-17T20:45:08.373Z,-0.80
2018-03-17T20:47:37.277Z,-0.70
2018-03-17T20:50:06.203Z,-0.80
2018-03-17T20:52:35.784Z,-0.80
2018-03-17T20:55:04.643Z,-0.80
2018-03-17T20:57:35.015Z,-0.70
2018-03-17T21:00:03.878Z,-0.80
2018-03-17T21:02:32.784Z,-0.70
2018-03-17T21:05:01.696Z,-0.70
2018-03-17T21:07:30.573Z,-0.60
2018-03-17T21:09:59.536Z,-0.70
2018-03-17T21:12:28.450Z,-0.70
2018-03-17T21:14:58.283Z,-0.60
2018-03-17T21:17:27.155Z,-0.50
2018-03-17T21:19:56.098Z,-0.60
2018-03-17T21:22:24.957Z,-0.50
2018-03-17T21:24:53.816Z,-0.50
2018-03-17T21:27:22.734Z,-0.40
2018-03-17T21:29:52.014Z,-0.50
2018-03-17T21:32:20.864Z,-0.60
2018-03-17T21:34:49.782Z,-0.60
2018-03-17T21:37:18.767Z,-0.70
2018-03-17T21:39:47.628Z,-0.60
2018-03-17T21:42:17.277Z,-0.60
2018-03-17T21:44:46.164Z,-0.70
2018-03-17T21:47:15.916Z,-0.60
2018-03-17T21:49:44.845Z,-0.70
2018-03-17T21:52:13.826Z,-0.70
2018-03-17T21:54:42.717Z,-0.60
2018-03-17T21:57:12.024Z,-0.60
2018-03-17T21:59:40.888Z,-0.80
2018-03-17T22:02:09.773Z,-0.80
2018-03-17T22:04:38.720Z,-0.70
2018-03-17T22:07:07.579Z,-0.60
2018-03-17T22:09:36.552Z,-0.70
2018-03-17T22:12:05.428Z,-0.70
2018-03-17T22:14:36.064Z,-0.70
2018-03-17T22:17:04.926Z,-0.80
2018-03-17T22:19:34.564Z,-0.80
2018-03-17T22:22:03.512Z,-0.80
2018-03-17T22:24:32.376Z,-0.80
2018-03-17T22:27:01.265Z,-0.80
2018-03-17T22:29:30.126Z,-0.80
2018-03-17T22:31:59.055Z,-0.70
2018-03-17T22:34:27.892Z,-0.90
2018-03-17T22:36:57.519Z,-0.70
2018-03-17T22:39:26.388Z,-0.80
2018-03-17T22:41:55.275Z,-0.80
2018-03-17T22:44:24.178Z,-0.90
2018-03-17T22:46:53.136Z,-1.00
2018-03-17T22:49:22.014Z,-1.00
2018-03-17T22:51:51.817Z,-1.00
2018-03-17T22:54:20.663Z,-0.90
2018-03-17T22:56:50.799Z,-0.90
2018-03-17T22:59:19.667Z,-0.80
2018-03-17T23:01:48.541Z,-0.80
2018-03-17T23:04:18.713Z,-0.80
2018-03-17T23:19:42.821Z,-0.90
2018-03-17T23:22:12.469Z,-0.90
2018-03-17T23:24:41.364Z,-1.00
2018-03-17T23:27:10.228Z,-0.80
2018-03-17T23:29:39.153Z,-0.80
2018-03-17T23:32:08.000Z,-0.80
2018-03-17T23:34:36.911Z,-0.80
2018-03-17T23:37:05.786Z,-0.80
2018-03-17T23:39:34.660Z,-0.90
2018-03-17T23:42:04.383Z,-0.80
2018-03-17T23:44:33.276Z,-0.90
2018-03-17T23:47:02.151Z,-0.80
2018-03-17T23:49:31.033Z,-0.70
2018-03-17T23:51:59.879Z,-0.80
2018-03-17T23:54:28.756Z,-0.80
2018-03-17T23:56:58.396Z,-0.80
2018-03-17T23:59:27.284Z,-0.80
